KYNG/YNG METAR and TAF weather

Enter ICAO airport designator
Station Type Date Time Source
KYNG METAR 2019/02/16 16:51 UTC NOAA

KYNG 161651Z 34010KT 9SM -SN OVC017 M03/M08 A3003 RMK AO2 SLP185 P0000 T10331078 $


Station Type Date Time Source
KYNG Decoded METAR 2019/02/16 16:51 UTC NOAA

YOUNGSTOWN-WARREN REG AIRPRT, OH, United States (KYNG) 41-15N 080-40W 360M
Feb 16, 2019 - 11:51 AM EST / 2019.02.16 1651 UTC
Wind: from the NNW (340 degrees) at 12 MPH (10 KT):0
Visibility: 9 mile(s):0
Sky conditions: overcast
Weather: light snow
Precipitation last hour: A trace
Temperature: 26.1 F (-3.3 C)
Windchill: 15 F (-9 C):1
Dew Point: 18.0 F (-7.8 C)
Relative Humidity: 70%
Pressure (altimeter): 30.03 in. Hg (1016 hPa)
ob: KYNG 161651Z 34010KT 9SM -SN OVC017 M03/M08 A3003 RMK AO2 SLP185 P0000 T10331078
cycle: 17

Station Type Date Time Source
KYNG TAF 2019/02/16 17:15 UTC NOAA

TAF
AMD KYNG 161713Z 1617/1712 34006KT P6SM OVC015
FM162200 01006KT P6SM BKN035
FM170800 07005KT P6SM SCT200


Example: see airport list